map of SGR home
SGR - Airport
Location
City:  Houston, Texas, United States
Name:Sugar Land Regional
ICAO:KSGR
IATA:SGR
FAA LID:SGR

Details
Type:Airport (Airfield)
Use:Public/Civil
Latitude:2937'20"N (29.622250)
Longitude:9539'23"W (-95.656527)
Datum:WGS 1984
Elevation:82 ft (25 m)
Variation:2.66E (WMM2015 magnetic declination)
-0.11 annual change
Runways:1
Longest:8000 × 100 ft (2438 × 30.5 m), paved

Time
Time Zone:UTC-6 (DST-5)
Local Time:

Weather
METAR:KSGR 131553Z 24005KT 10SM CLR 08/03 A3022 RMK AO2 SLP235 T00830028
TAF:KSGR 131129Z 1312/1412 20003KT P6SM SCT250
FM131600 22007KT P6SM BKN250
FM140000 21003KT P6SM BKN250

Related Locations
Nearby:
Farthest:CCK: 10992 mi / 17690 km
West Island (Pulau Panjang) [Cocos (Keeling) Islands], CC

Find:

   beyond  
but within

Other Information
Maps:
NOTAMs:
Links:
Sources:

  
flag of United States
flag of Texas
flag of Houston
  

Airport Diagram

Airport diagram for SGR

Airport diagram PDF

Sectional Chart

Flight Planning
at skyvector.com

Satellite Image

Google Maps Satellite view

 

Copyright © 2004-2017 Karl L. Swartz. All rights reserved.
The Great Circle Mapper name and logo are trademarks of the Great Circle Mapper.
All other trademarks mentioned herein belong to their respective owners.
Please see credits for attibutions and further copyright information.

  Follow gcmap on Facebook Follow gcmap on Twitter Follow gcmap on Google+ GCmap on LinkedIn

hCard Microformat

Geo Microformat